createdAt,value
2017-08-28T00:00:26.019Z,11.88
2017-08-28T00:01:36.304Z,11.93
2017-08-28T00:02:46.571Z,11.83
2017-08-28T00:03:56.850Z,11.73
2017-08-28T00:05:07.120Z,11.71
2017-08-28T00:06:17.071Z,11.76
2017-08-28T00:07:27.040Z,11.67
2017-08-28T00:08:37.310Z,11.59
2017-08-28T00:09:47.255Z,11.7
2017-08-28T00:10:57.216Z,11.62
2017-08-28T00:12:07.166Z,11.56
2017-08-28T00:13:17.435Z,11.65
2017-08-28T00:14:27.384Z,11.6
2017-08-28T00:15:37.650Z,11.52
2017-08-28T00:16:47.919Z,11.59
2017-08-28T00:17:58.201Z,11.59
2017-08-28T00:19:08.148Z,11.62
2017-08-28T00:20:18.342Z,11.62
2017-08-28T00:21:28.614Z,11.59
2017-08-28T00:22:38.883Z,11.59
2017-08-28T00:23:49.150Z,11.58
2017-08-28T00:24:59.097Z,11.56
2017-08-28T00:26:08.732Z,11.56
2017-08-28T00:27:18.997Z,11.63
2017-08-28T00:28:28.950Z,11.62
2017-08-28T00:29:39.222Z,11.59
2017-08-28T00:30:49.502Z,11.56
2017-08-28T00:31:59.448Z,11.62
2017-08-28T00:33:09.726Z,11.58
2017-08-28T00:34:20.001Z,11.55
2017-08-28T00:35:30.270Z,11.55
2017-08-28T00:36:40.216Z,11.65
2017-08-28T00:37:49.846Z,11.53
2017-08-28T00:39:00.117Z,11.55
2017-08-28T00:40:09.745Z,11.49
2017-08-28T00:41:20.019Z,11.58
2017-08-28T00:42:29.972Z,11.52
2017-08-28T00:43:40.262Z,11.49
2017-08-28T00:44:50.528Z,11.52
2017-08-28T00:46:00.798Z,11.48
2017-08-28T00:47:11.067Z,11.49
2017-08-28T00:48:21.337Z,11.52
2017-08-28T00:49:30.960Z,11.48
2017-08-28T00:50:40.914Z,11.52
2017-08-28T00:51:51.194Z,11.55
2017-08-28T00:53:01.467Z,11.49
2017-08-28T00:54:11.736Z,11.52
2017-08-28T00:55:21.689Z,11.45
2017-08-28T00:56:31.958Z,11.45
2017-08-28T00:57:42.226Z,11.51
2017-08-28T00:58:52.173Z,11.4
2017-08-28T01:00:01.799Z,11.43
2017-08-28T01:01:12.068Z,11.43
2017-08-28T01:02:22.347Z,11.4
2017-08-28T01:03:32.655Z,11.43
2017-08-28T01:04:42.923Z,11.41
2017-08-28T01:05:52.225Z,11.45
2017-08-28T01:07:02.172Z,11.34
2017-08-28T01:08:12.125Z,11.31
2017-08-28T01:09:22.394Z,11.26
2017-08-28T01:10:32.665Z,11.31
2017-08-28T01:11:42.612Z,11.26
2017-08-28T01:12:52.880Z,11.23
2017-08-28T01:14:02.509Z,11.18
2017-08-28T01:15:12.454Z,11.18
2017-08-28T01:16:22.726Z,11.22
2017-08-28T01:17:32.998Z,11.2
2017-08-28T01:18:43.281Z,11.2
2017-08-28T01:19:53.547Z,11.23
2017-08-28T01:21:03.177Z,11.18
2017-08-28T01:22:12.803Z,11.22
2017-08-28T01:23:22.792Z,11.15
2017-08-28T01:24:32.738Z,11.12
2017-08-28T01:25:43.007Z,11.1
2017-08-28T01:26:53.284Z,11.08
2017-08-28T01:28:03.559Z,11.19
2017-08-28T01:29:13.512Z,11.12
2017-08-28T01:30:23.804Z,11.1
2017-08-28T01:31:34.070Z,11.12
2017-08-28T01:32:44.340Z,11.1
2017-08-28T01:33:54.616Z,11.05
2017-08-28T01:35:04.886Z,11.12
2017-08-28T01:36:15.160Z,11.13
2017-08-28T01:37:24.794Z,11
2017-08-28T01:38:35.064Z,11.05
2017-08-28T01:39:45.337Z,11.02
2017-08-28T01:40:55.285Z,11.05
2017-08-28T01:42:05.703Z,11.04
2017-08-28T01:43:15.973Z,11.05
2017-08-28T01:44:26.253Z,11
2017-08-28T01:45:36.536Z,11.01
2017-08-28T01:46:46.809Z,11
2017-08-28T01:47:56.760Z,11
2017-08-28T01:49:06.709Z,10.92
2017-08-28T01:50:16.659Z,10.89
2017-08-28T01:51:26.606Z,10.92
2017-08-28T01:52:36.876Z,10.97
2017-08-28T01:53:47.127Z,11.01
2017-08-28T01:54:57.400Z,11
2017-08-28T01:56:07.356Z,10.84
2017-08-28T01:57:17.621Z,10.97
2017-08-28T01:58:27.573Z,10.94
2017-08-28T01:59:37.845Z,10.97
2017-08-28T02:00:47.474Z,11
2017-08-28T02:01:57.420Z,10.86
2017-08-28T02:03:07.687Z,10.98
2017-08-28T02:04:17.960Z,10.98
2017-08-28T02:05:28.327Z,10.94
2017-08-28T02:06:38.271Z,10.94
2017-08-28T02:07:48.219Z,10.9
2017-08-28T02:08:58.488Z,10.86
2017-08-28T02:10:08.758Z,10.89
2017-08-28T02:11:18.703Z,10.86
2017-08-28T02:12:28.971Z,10.86
2017-08-28T02:13:39.240Z,10.83
2017-08-28T02:14:49.185Z,10.84
2017-08-28T02:15:58.812Z,10.71
2017-08-28T02:17:09.084Z,10.77
2017-08-28T02:18:19.359Z,10.75
2017-08-28T02:19:29.626Z,10.72
2017-08-28T02:20:39.893Z,10.77
2017-08-28T02:21:50.158Z,10.65
2017-08-28T02:22:59.463Z,10.67
2017-08-28T02:24:09.414Z,10.62
2017-08-28T02:25:19.359Z,10.61
2017-08-28T02:26:29.634Z,10.67
2017-08-28T02:27:39.583Z,10.58
2017-08-28T02:28:49.846Z,10.61
2017-08-28T02:29:59.793Z,10.61
2017-08-28T02:31:09.757Z,10.57
2017-08-28T02:32:20.029Z,10.59
2017-08-28T02:33:30.299Z,10.61
2017-08-28T02:34:40.578Z,10.53
2017-08-28T02:35:50.849Z,10.46
2017-08-28T02:37:01.123Z,10.55
2017-08-28T02:38:10.754Z,10.48
2017-08-28T02:39:21.029Z,10.45
2017-08-28T02:40:31.308Z,10.49
2017-08-28T02:41:41.588Z,10.48
2017-08-28T02:42:51.534Z,10.46
2017-08-28T02:44:01.803Z,10.48
2017-08-28T02:45:11.753Z,10.39
2017-08-28T02:46:22.024Z,10.53
2017-08-28T02:47:32.300Z,10.43
2017-08-28T02:48:42.573Z,10.42
2017-08-28T02:49:52.841Z,10.49
2017-08-28T02:51:03.110Z,10.49
2017-08-28T02:52:13.392Z,10.46
2017-08-28T02:53:23.350Z,10.53
2017-08-28T02:54:33.300Z,10.45
2017-08-28T02:55:43.597Z,10.39
2017-08-28T02:56:53.868Z,10.36
2017-08-28T02:58:04.136Z,10.39
2017-08-28T02:59:13.768Z,10.39
2017-08-28T03:00:24.035Z,10.43
2017-08-28T03:01:34.306Z,10.38
2017-08-28T03:02:44.258Z,10.34
2017-08-28T03:03:54.238Z,10.39
2017-08-28T03:05:04.508Z,10.39
2017-08-28T03:06:14.781Z,10.41
2017-08-28T03:07:25.049Z,10.38
2017-08-28T03:08:35.316Z,10.38
2017-08-28T03:09:45.273Z,10.39
2017-08-28T03:10:55.562Z,10.41
2017-08-28T03:12:05.844Z,10.38
2017-08-28T03:13:16.123Z,10.41
2017-08-28T03:14:26.394Z,10.42
2017-08-28T03:15:36.340Z,10.36
2017-08-28T03:16:46.639Z,10.36
2017-08-28T03:17:56.912Z,10.42
2017-08-28T03:19:07.182Z,10.42
2017-08-28T03:20:17.450Z,10.39
2017-08-28T03:21:27.717Z,10.53
2017-08-28T03:22:37.991Z,10.55
2017-08-28T03:23:48.258Z,10.49
2017-08-28T03:24:58.209Z,10.55
2017-08-28T03:26:07.842Z,10.49
2017-08-28T03:27:18.111Z,10.48
2017-08-28T03:28:28.385Z,10.62
2017-08-28T03:29:38.651Z,10.61
2017-08-28T03:30:48.602Z,10.58
2017-08-28T03:31:58.893Z,10.64
2017-08-28T03:33:08.845Z,10.62
2017-08-28T03:34:19.120Z,10.61
2017-08-28T03:35:29.065Z,10.59
2017-08-28T03:36:39.010Z,10.61
2017-08-28T03:37:49.279Z,10.61
2017-08-28T03:38:59.226Z,10.65
2017-08-28T03:40:08.866Z,10.59
2017-08-28T03:41:19.144Z,10.59
2017-08-28T03:42:29.088Z,10.59
2017-08-28T03:43:39.368Z,10.51
2017-08-28T03:44:49.637Z,10.59
2017-08-28T03:45:59.901Z,10.59
2017-08-28T03:47:10.174Z,10.57
2017-08-28T03:48:20.123Z,10.55
2017-08-28T03:49:30.391Z,10.61
2017-08-28T03:50:40.663Z,10.62
2017-08-28T03:51:50.926Z,10.51
2017-08-28T03:53:01.200Z,10.49
2017-08-28T03:54:11.145Z,10.43
2017-08-28T03:55:21.411Z,10.45
2017-08-28T03:56:31.365Z,10.55
2017-08-28T03:57:41.629Z,10.45
2017-08-28T03:58:51.577Z,10.49
2017-08-28T04:00:01.856Z,10.41
2017-08-28T04:01:12.127Z,10.46
2017-08-28T04:02:22.406Z,10.42
2017-08-28T04:03:32.029Z,10.45
2017-08-28T04:04:42.308Z,10.34
2017-08-28T04:05:52.583Z,10.39
2017-08-28T04:07:02.853Z,10.39
2017-08-28T04:08:13.127Z,10.36
2017-08-28T04:09:23.072Z,10.39
2017-08-28T04:10:33.343Z,10.38
2017-08-28T04:11:43.613Z,10.46
2017-08-28T04:12:53.880Z,10.48
2017-08-28T04:14:03.831Z,10.49
2017-08-28T04:15:14.100Z,10.46
2017-08-28T04:16:24.366Z,10.51
2017-08-28T04:17:34.308Z,10.51
2017-08-28T04:18:44.253Z,10.53
2017-08-28T04:19:54.523Z,10.53
2017-08-28T04:21:04.477Z,10.57
2017-08-28T04:22:14.755Z,10.59
2017-08-28T04:23:25.039Z,10.58
2017-08-28T04:24:34.663Z,10.59
2017-08-28T04:25:43.970Z,10.58
2017-08-28T04:26:54.238Z,10.57
2017-08-28T04:28:04.508Z,10.59
2017-08-28T04:29:14.455Z,10.64
2017-08-28T04:30:24.407Z,10.59
2017-08-28T04:31:34.675Z,10.55
2017-08-28T04:32:44.625Z,10.59
2017-08-28T04:33:54.576Z,10.61
2017-08-28T04:35:04.846Z,10.61
2017-08-28T04:36:14.796Z,10.58
2017-08-28T04:37:25.068Z,10.59
2017-08-28T04:38:35.334Z,10.58
2017-08-28T04:39:45.279Z,10.61
2017-08-28T04:40:55.548Z,10.59
2017-08-28T04:42:05.495Z,10.58
2017-08-28T04:43:15.772Z,10.59
2017-08-28T04:44:25.725Z,10.51
2017-08-28T04:45:35.690Z,10.62
2017-08-28T04:46:45.993Z,10.62
2017-08-28T04:47:56.259Z,10.58
2017-08-28T04:49:06.208Z,10.67
2017-08-28T04:50:16.472Z,10.76
2017-08-28T04:51:26.777Z,10.75
2017-08-28T04:52:37.049Z,10.77
2017-08-28T04:53:47.323Z,10.72
2017-08-28T04:54:57.269Z,10.69
2017-08-28T04:56:07.537Z,10.75
2017-08-28T04:57:17.161Z,10.67
2017-08-28T04:58:27.107Z,10.77
2017-08-28T04:59:37.377Z,10.76
2017-08-28T05:00:47.645Z,10.83
2017-08-28T05:01:57.914Z,10.87
2017-08-28T05:03:08.189Z,10.86
2017-08-28T05:04:18.457Z,10.84
2017-08-28T05:05:28.728Z,10.84
2017-08-28T05:06:38.677Z,10.83
2017-08-28T05:07:48.956Z,10.9
2017-08-28T05:08:59.225Z,10.92
2017-08-28T05:10:09.500Z,10.97
2017-08-28T05:11:19.442Z,10.98
2017-08-28T05:12:29.713Z,10.84
2017-08-28T05:13:39.981Z,10.95
2017-08-28T05:14:50.254Z,11.01
2017-08-28T05:16:00.540Z,10.98
2017-08-28T05:17:10.813Z,11
2017-08-28T05:18:20.444Z,11
2017-08-28T05:19:30.392Z,10.94
2017-08-28T05:20:40.659Z,10.89
2017-08-28T05:21:50.933Z,10.87
2017-08-28T05:23:01.201Z,10.86
2017-08-28T05:24:11.471Z,10.86
2017-08-28T05:25:21.414Z,10.87
2017-08-28T05:26:31.360Z,10.84
2017-08-28T05:27:41.306Z,10.89
2017-08-28T05:28:51.261Z,10.84
2017-08-28T05:30:01.541Z,10.87
2017-08-28T05:31:11.490Z,10.87
2017-08-28T05:32:21.759Z,10.89
2017-08-28T05:33:31.385Z,10.89
2017-08-28T05:34:41.332Z,10.82
2017-08-28T05:35:51.278Z,10.9
2017-08-28T05:37:01.546Z,10.87
2017-08-28T05:38:11.818Z,10.83
2017-08-28T05:39:21.442Z,10.82
2017-08-28T05:40:31.710Z,10.89
2017-08-28T05:41:41.333Z,10.86
2017-08-28T05:42:51.279Z,10.94
2017-08-28T05:44:01.548Z,10.95
2017-08-28T05:45:11.819Z,10.95
2017-08-28T05:46:22.090Z,11.01
2017-08-28T05:47:32.039Z,11.13
2017-08-28T05:48:41.671Z,11.04
2017-08-28T05:49:51.616Z,11.18
2017-08-28T05:51:01.568Z,11.16
2017-08-28T05:52:11.515Z,11.18
2017-08-28T05:53:21.466Z,11.27
2017-08-28T05:54:31.744Z,11.31
2017-08-28T05:55:41.690Z,11.41
2017-08-28T05:56:51.959Z,11.53
2017-08-28T05:58:01.907Z,11.48
2017-08-28T05:59:11.532Z,11.56
2017-08-28T06:00:21.479Z,11.59
2017-08-28T06:01:31.749Z,11.6
2017-08-28T06:02:42.054Z,11.71
2017-08-28T06:03:52.330Z,11.76
2017-08-28T06:05:02.605Z,11.83
2017-08-28T06:06:12.554Z,11.95
2017-08-28T06:07:22.514Z,11.99
2017-08-28T06:08:32.464Z,12.15
2017-08-28T06:09:42.739Z,12.17
2017-08-28T06:10:53.009Z,12.23
2017-08-28T06:12:03.289Z,12.39
2017-08-28T06:13:13.239Z,12.36
2017-08-28T06:14:23.506Z,12.5
2017-08-28T06:15:33.777Z,12.61
2017-08-28T06:16:44.053Z,12.51
2017-08-28T06:17:54.480Z,12.68
2017-08-28T06:19:04.143Z,12.66
2017-08-28T06:20:13.449Z,12.75
2017-08-28T06:21:23.719Z,12.88
2017-08-28T06:22:33.343Z,12.87
2017-08-28T06:23:43.616Z,12.91
2017-08-28T06:24:53.886Z,13.05
2017-08-28T06:26:03.834Z,13.08
2017-08-28T06:27:13.785Z,13.13
2017-08-28T06:28:24.057Z,13.21
2017-08-28T06:29:33.361Z,13.26
2017-08-28T06:30:43.629Z,13.28
2017-08-28T06:31:53.581Z,13.4
2017-08-28T06:33:03.864Z,13.42
2017-08-28T06:34:13.812Z,13.52
2017-08-28T06:35:23.440Z,13.65
2017-08-28T06:36:33.392Z,13.62
2017-08-28T06:37:43.675Z,13.71
2017-08-28T06:38:53.627Z,13.79
2017-08-28T06:40:03.896Z,13.79
2017-08-28T06:41:13.551Z,13.85
2017-08-28T06:42:23.501Z,13.85
2017-08-28T06:43:33.775Z,14
2017-08-28T06:44:44.044Z,13.98
2017-08-28T06:45:54.317Z,13.97
2017-08-28T06:47:04.593Z,14.04
2017-08-28T06:48:13.902Z,14.07
2017-08-28T06:49:24.171Z,14.04
2017-08-28T06:50:34.120Z,14.12
2017-08-28T06:51:46.228Z,14.12
2017-08-28T06:52:56.183Z,14.18
2017-08-28T06:54:06.480Z,14.11
2017-08-28T06:55:16.429Z,13.76
2017-08-28T06:56:26.057Z,13.68
2017-08-28T06:57:37.988Z,13.54
2017-08-28T06:58:48.257Z,13.42
2017-08-28T06:59:58.546Z,13.45
2017-08-28T07:01:08.835Z,13.54
2017-08-28T07:02:18.463Z,13.55
2017-08-28T07:03:28.449Z,13.52
2017-08-28T07:04:38.724Z,13.55
2017-08-28T07:05:48.675Z,13.61
2017-08-28T07:06:58.725Z,13.61
2017-08-28T07:08:08.675Z,13.57
2017-08-28T07:09:18.950Z,13.65
2017-08-28T07:10:28.900Z,13.65
2017-08-28T07:11:38.848Z,13.68
2017-08-28T07:12:48.804Z,13.61
2017-08-28T07:13:59.074Z,13.78
2017-08-28T07:15:09.347Z,13.83
2017-08-28T07:16:19.614Z,13.82
2017-08-28T07:17:29.573Z,13.79
2017-08-28T07:18:39.524Z,13.85
2017-08-28T07:19:49.804Z,13.86
2017-08-28T07:20:59.752Z,13.82
2017-08-28T07:22:09.379Z,13.95
2017-08-28T07:23:19.652Z,13.89
2017-08-28T07:24:29.603Z,13.89
2017-08-28T07:25:39.557Z,13.94
2017-08-28T07:26:49.838Z,14.13
2017-08-28T07:27:59.465Z,14.01
2017-08-28T07:29:09.422Z,14.12
2017-08-28T07:30:19.699Z,14.12
2017-08-28T07:31:29.647Z,14.23
2017-08-28T07:32:39.926Z,14.33
2017-08-28T07:33:49.882Z,14.43
2017-08-28T07:35:00.162Z,14.37
2017-08-28T07:36:10.118Z,14.43
2017-08-28T07:37:20.070Z,14.52
2017-08-28T07:38:30.020Z,14.58
2017-08-28T07:39:40.290Z,14.68
2017-08-28T07:40:50.561Z,14.77
2017-08-28T07:42:00.516Z,14.71
2017-08-28T07:43:10.146Z,14.9
2017-08-28T07:44:19.780Z,14.86
2017-08-28T07:45:29.729Z,14.93
2017-08-28T07:46:40.025Z,14.87
2017-08-28T07:47:50.299Z,14.93
2017-08-28T07:49:00.251Z,15.07
2017-08-28T07:50:10.201Z,14.99
2017-08-28T07:51:20.152Z,14.79
2017-08-28T07:52:30.104Z,14.73
2017-08-28T07:53:40.374Z,14.66
2017-08-28T07:54:50.323Z,14.58
2017-08-28T07:56:00.599Z,14.41
2017-08-28T07:57:10.876Z,14.48
2017-08-28T07:58:21.148Z,14.49
2017-08-28T07:59:31.100Z,14.56
2017-08-28T08:00:41.375Z,14.59
2017-08-28T08:01:51.648Z,14.7
2017-08-28T08:03:01.925Z,14.63
2017-08-28T08:04:12.203Z,14.73
2017-08-28T08:05:22.474Z,14.79
2017-08-28T08:06:32.751Z,14.71
2017-08-28T08:07:42.702Z,14.85
2017-08-28T08:08:52.652Z,14.86
2017-08-28T08:10:02.924Z,14.94
2017-08-28T08:11:12.875Z,14.99
2017-08-28T08:12:22.826Z,15.08
2017-08-28T08:13:32.461Z,15.22
2017-08-28T08:14:42.737Z,15.29
2017-08-28T08:15:52.683Z,15.37
2017-08-28T08:17:02.637Z,15.55
2017-08-28T08:18:12.910Z,15.57
2017-08-28T08:19:22.538Z,15.84
2017-08-28T08:20:32.821Z,15.83
2017-08-28T08:21:42.778Z,15.9
2017-08-28T08:22:52.733Z,16.08
2017-08-28T08:24:03.008Z,16.06
2017-08-28T08:25:12.636Z,16.18
2017-08-28T08:26:22.908Z,16.36
2017-08-28T08:27:32.539Z,16.43
2017-08-28T08:28:42.814Z,16.51
2017-08-28T08:29:53.096Z,16.64
2017-08-28T08:31:03.373Z,16.79
2017-08-28T08:32:13.650Z,16.86
2017-08-28T08:33:23.606Z,17.07
2017-08-28T08:34:33.241Z,17.07
2017-08-28T08:35:42.873Z,17.04
2017-08-28T08:36:53.155Z,16.98
2017-08-28T08:38:03.106Z,17.12
2017-08-28T08:39:13.056Z,17.23
2017-08-28T08:40:22.365Z,17.16
2017-08-28T08:41:32.639Z,16.98
2017-08-28T08:42:42.917Z,16.97
2017-08-28T08:43:53.194Z,16.99
2017-08-28T08:45:02.825Z,17.17
2017-08-28T08:46:12.779Z,17.05
2017-08-28T08:47:22.423Z,16.98
2017-08-28T08:48:32.695Z,16.86
2017-08-28T08:49:42.972Z,17.1
2017-08-28T08:50:52.601Z,17.16
2017-08-28T08:52:02.876Z,17.1
2017-08-28T08:53:13.147Z,17.16
2017-08-28T08:54:22.457Z,17.14
2017-08-28T08:55:32.730Z,17.24
2017-08-28T08:56:42.363Z,17.3
2017-08-28T08:57:52.321Z,17.32
2017-08-28T08:59:02.597Z,17.41
2017-08-28T09:00:12.879Z,17.49
2017-08-28T09:01:22.844Z,17.65
2017-08-28T09:02:32.801Z,17.63
2017-08-28T09:03:43.074Z,17.71
2017-08-28T09:04:52.705Z,17.72
2017-08-28T09:06:02.679Z,17.68
2017-08-28T09:07:12.686Z,17.8
2017-08-28T09:08:22.962Z,17.66
2017-08-28T09:09:33.244Z,17.75
2017-08-28T09:10:42.874Z,17.65
2017-08-28T09:11:52.831Z,17.73
2017-08-28T09:13:03.102Z,17.86
2017-08-28T09:14:13.055Z,17.91
2017-08-28T09:15:22.684Z,17.97
2017-08-28T09:16:32.648Z,17.98
2017-08-28T09:17:42.429Z,18
2017-08-28T09:18:52.384Z,17.98
2017-08-28T09:20:02.345Z,17.95
2017-08-28T09:21:12.632Z,17.86
2017-08-28T09:22:22.270Z,17.86
2017-08-28T09:23:34.226Z,17.93
2017-08-28T09:24:44.508Z,17.82
2017-08-28T09:25:54.461Z,17.91
2017-08-28T09:27:04.411Z,17.86
2017-08-28T09:28:14.687Z,17.87
2017-08-28T09:29:24.961Z,17.84
2017-08-28T09:30:34.912Z,17.94
2017-08-28T09:31:44.871Z,17.9
2017-08-28T09:32:55.146Z,18.03
2017-08-28T09:34:05.419Z,18.02
2017-08-28T09:35:15.692Z,18.11
2017-08-28T09:36:25.646Z,17.68
2017-08-28T09:37:35.925Z,17.65
2017-08-28T09:38:45.555Z,17.71
2017-08-28T09:39:55.858Z,17.88
2017-08-28T09:41:06.131Z,17.88
2017-08-28T09:42:16.097Z,17.95
2017-08-28T09:43:25.728Z,18.06
2017-08-28T09:44:35.680Z,18.08
2017-08-28T09:45:45.971Z,18.23
2017-08-28T09:46:55.922Z,18.26
2017-08-28T09:48:05.554Z,18.31
2017-08-28T09:49:15.505Z,18.34
2017-08-28T09:50:25.460Z,18.53
2017-08-28T09:51:35.735Z,18.51
2017-08-28T09:52:46.010Z,18.6
2017-08-28T09:53:56.289Z,18.73
2017-08-28T09:55:06.243Z,18.82
2017-08-28T09:56:16.196Z,18.91
2017-08-28T09:57:26.473Z,18.94
2017-08-28T09:58:36.750Z,18.86
2017-08-28T09:59:47.022Z,19.07
2017-08-28T10:00:57.302Z,19.09
2017-08-28T10:02:07.582Z,19.22
2017-08-28T10:03:17.261Z,19.22
2017-08-28T10:04:27.231Z,19.04
2017-08-28T10:05:36.863Z,18.85
2017-08-28T10:06:46.815Z,18.82
2017-08-28T10:07:57.122Z,18.83
2017-08-28T10:09:07.396Z,18.67
2017-08-28T10:10:17.363Z,18.73
2017-08-28T10:11:27.650Z,18.91
2017-08-28T10:12:37.924Z,19.15
2017-08-28T10:13:48.213Z,19.22
2017-08-28T10:14:58.488Z,19.48
2017-08-28T10:16:08.761Z,19.63
2017-08-28T10:17:19.036Z,19.79
2017-08-28T10:18:29.313Z,19.81
2017-08-28T10:19:39.590Z,19.94
2017-08-28T10:20:49.865Z,20
2017-08-28T10:22:03.606Z,19.81
2017-08-28T10:23:13.595Z,19.87
2017-08-28T10:24:23.551Z,19.99
2017-08-28T10:25:33.503Z,19.71
2017-08-28T10:26:43.458Z,19.49
2017-08-28T10:27:55.737Z,19.64
2017-08-28T10:29:06.015Z,19.6
2017-08-28T10:30:16.030Z,19.59
2017-08-28T10:31:25.666Z,19.63
2017-08-28T10:32:35.940Z,19.63
2017-08-28T10:33:46.220Z,19.59
2017-08-28T10:34:55.852Z,19.63
2017-08-28T10:36:05.811Z,19.72
2017-08-28T10:37:16.087Z,19.66
2017-08-28T10:38:26.044Z,19.74
2017-08-28T10:39:36.317Z,19.57
2017-08-28T10:40:46.285Z,19.57
2017-08-28T10:41:56.567Z,19.48
2017-08-28T10:43:06.845Z,19.44
2017-08-28T10:44:17.125Z,19.35
2017-08-28T10:45:27.400Z,19.44
2017-08-28T10:46:37.703Z,19.34
2017-08-28T10:47:47.990Z,19.41
2017-08-28T10:48:57.944Z,19.39
2017-08-28T10:50:07.577Z,19.37
2017-08-28T10:51:17.529Z,19.22
2017-08-28T10:52:27.163Z,19.41
2017-08-28T10:53:37.119Z,19.56
2017-08-28T10:54:47.398Z,19.55
2017-08-28T10:55:57.676Z,19.35
2017-08-28T10:57:07.637Z,19.38
2017-08-28T10:58:17.913Z,19.37
2017-08-28T10:59:28.186Z,19.48
2017-08-28T11:00:38.458Z,19.49
2017-08-28T11:01:48.411Z,19.72
2017-08-28T11:02:58.364Z,19.63
2017-08-28T11:04:08.638Z,19.64
2017-08-28T11:05:18.591Z,19.72
2017-08-28T11:06:28.864Z,19.59
2017-08-28T11:07:39.147Z,19.7
2017-08-28T11:08:49.105Z,19.74
2017-08-28T11:09:59.392Z,19.81
2017-08-28T11:11:09.350Z,19.94
2017-08-28T11:12:19.310Z,19.9
2017-08-28T11:13:29.608Z,19.92
2017-08-28T11:14:39.237Z,19.87
2017-08-28T11:15:49.512Z,20
2017-08-28T11:16:59.785Z,19.99
2017-08-28T11:18:09.098Z,19.82
2017-08-28T11:19:19.373Z,19.9
2017-08-28T11:20:29.649Z,20.21
2017-08-28T11:21:39.927Z,20.39
2017-08-28T11:22:49.881Z,20.36
2017-08-28T11:23:59.832Z,20.73
2017-08-28T11:25:09.801Z,20.9
2017-08-28T11:26:19.758Z,20.92
2017-08-28T11:27:30.033Z,21.05
2017-08-28T11:28:40.319Z,21.05
2017-08-28T11:29:50.279Z,21.05
2017-08-28T11:31:00.239Z,21.19
2017-08-28T11:32:10.516Z,21.44
2017-08-28T11:33:20.793Z,21.75
2017-08-28T11:34:31.069Z,21.68
2017-08-28T11:35:41.351Z,21.56
2017-08-28T11:36:51.305Z,21.45
2017-08-28T11:38:01.590Z,21.35
2017-08-28T11:39:11.223Z,21.17
2017-08-28T11:40:21.180Z,21.19
2017-08-28T11:41:31.138Z,21.19
2017-08-28T11:42:41.413Z,21.1
2017-08-28T11:43:51.370Z,21.19
2017-08-28T11:45:01.004Z,21.7
2017-08-28T11:46:10.961Z,21.85
2017-08-28T11:47:21.239Z,22.04
2017-08-28T11:48:31.513Z,22.14
2017-08-28T11:49:41.469Z,22.22
2017-08-28T11:50:51.747Z,22.26
2017-08-28T11:52:02.031Z,22.25
2017-08-28T11:53:12.307Z,22.18
2017-08-28T11:54:22.589Z,22.28
2017-08-28T11:55:32.868Z,22.19
2017-08-28T11:56:43.151Z,22.23
2017-08-28T11:57:52.786Z,22.33
2017-08-28T11:59:03.061Z,22.38
2017-08-28T12:00:13.370Z,22.38
2017-08-28T12:01:23.646Z,22.33
2017-08-28T12:02:33.604Z,22.55
2017-08-28T12:03:43.885Z,22.47
2017-08-28T12:04:53.841Z,22.33
2017-08-28T12:06:03.798Z,22.28
2017-08-28T12:07:13.766Z,22.21
2017-08-28T12:08:24.045Z,22.19
2017-08-28T12:09:34.322Z,22.28
2017-08-28T12:10:44.283Z,22.26
2017-08-28T12:11:54.569Z,22.19
2017-08-28T12:13:04.203Z,22.12
2017-08-28T12:14:14.484Z,22.22
2017-08-28T12:15:24.489Z,22.18
2017-08-28T12:16:34.447Z,22
2017-08-28T12:17:44.726Z,22.23
2017-08-28T12:18:54.698Z,22.37
2017-08-28T12:20:04.975Z,22.62
2017-08-28T12:21:14.933Z,22.67
2017-08-28T12:22:24.887Z,22.7
2017-08-28T12:23:34.845Z,22.55
2017-08-28T12:24:44.801Z,22.67
2017-08-28T12:25:55.083Z,22.8
2017-08-28T12:27:05.364Z,22.95
2017-08-28T12:28:15.391Z,22.95
2017-08-28T12:29:25.351Z,22.62
2017-08-28T12:30:35.307Z,22.4
2017-08-28T12:31:45.582Z,22.37
2017-08-28T12:32:55.540Z,22.21
2017-08-28T12:34:05.502Z,22.19
2017-08-28T12:35:15.776Z,21.89
2017-08-28T12:36:25.412Z,21.77
2017-08-28T12:37:35.696Z,21.43
2017-08-28T12:38:45.972Z,21.3
2017-08-28T12:39:55.931Z,21.1
2017-08-28T12:41:05.572Z,21.08
2017-08-28T12:42:15.856Z,20.95
2017-08-28T12:43:26.134Z,20.96
2017-08-28T12:44:36.088Z,20.85
2017-08-28T12:45:46.369Z,20.9
2017-08-28T12:46:56.651Z,20.92
2017-08-28T12:48:06.606Z,20.92
2017-08-28T12:49:16.882Z,20.95
2017-08-28T12:50:26.843Z,21
2017-08-28T12:51:36.815Z,20.93
2017-08-28T12:52:46.776Z,20.85
2017-08-28T12:53:56.408Z,20.73
2017-08-28T12:55:06.686Z,20.71
2017-08-28T12:56:16.974Z,20.63
2017-08-28T12:57:27.246Z,20.55
2017-08-28T12:58:37.198Z,20.53
2017-08-28T12:59:47.152Z,20.24
2017-08-28T13:00:56.789Z,20.34
2017-08-28T13:02:06.427Z,20.34
2017-08-28T13:03:16.381Z,20.29
2017-08-28T13:04:26.663Z,20.02
2017-08-28T13:05:36.293Z,19.97
2017-08-28T13:06:46.245Z,20
2017-08-28T13:07:56.207Z,19.92
2017-08-28T13:09:06.480Z,19.9
2017-08-28T13:10:16.442Z,19.9
2017-08-28T13:11:26.401Z,19.74
2017-08-28T13:12:36.358Z,19.78
2017-08-28T13:13:46.633Z,19.74
2017-08-28T13:14:55.943Z,19.63
2017-08-28T13:16:06.220Z,19.7
2017-08-28T13:17:16.179Z,19.56
2017-08-28T13:18:26.130Z,19.49
2017-08-28T13:19:36.406Z,19.57
2017-08-28T13:20:46.687Z,19.57
2017-08-28T13:21:56.959Z,19.45
2017-08-28T13:23:07.235Z,19.48
2017-08-28T13:24:17.513Z,19.44
2017-08-28T13:25:27.787Z,19.45
2017-08-28T13:26:38.065Z,19.38
2017-08-28T13:27:48.016Z,19.45
2017-08-28T13:28:58.288Z,19.42
2017-08-28T13:30:08.563Z,19.49
2017-08-28T13:31:18.835Z,19.56
2017-08-28T13:32:28.788Z,19.57
2017-08-28T13:33:38.742Z,19.45
2017-08-28T13:34:48.693Z,19.47
2017-08-28T13:35:58.656Z,19.45
2017-08-28T13:37:08.291Z,19.48
2017-08-28T13:38:18.564Z,19.56
2017-08-28T13:39:28.520Z,19.62
2017-08-28T13:40:38.793Z,19.53
2017-08-28T13:41:48.745Z,19.56
2017-08-28T13:42:58.718Z,19.7
2017-08-28T13:44:08.349Z,19.64
2017-08-28T13:45:18.298Z,19.62
2017-08-28T13:46:28.251Z,19.64
2017-08-28T13:47:38.524Z,19.62
2017-08-28T13:48:48.481Z,19.71
2017-08-28T13:49:58.433Z,19.71
2017-08-28T13:51:08.724Z,19.72
2017-08-28T13:52:19.005Z,19.59
2017-08-28T13:53:28.313Z,19.64
2017-08-28T13:54:38.265Z,19.64
2017-08-28T13:55:48.542Z,19.62
2017-08-28T13:56:58.493Z,19.56
2017-08-28T13:58:07.801Z,19.55
2017-08-28T13:59:17.755Z,19.55
2017-08-28T14:00:28.047Z,19.55
2017-08-28T14:01:38.319Z,19.47
2017-08-28T14:02:48.275Z,19.45
2017-08-28T14:03:58.571Z,19.47
2017-08-28T14:05:08.209Z,19.41
2017-08-28T14:06:18.482Z,19.52
2017-08-28T14:07:28.448Z,19.41
2017-08-28T14:08:38.405Z,19.42
2017-08-28T14:09:48.685Z,19.45
2017-08-28T14:10:58.647Z,19.41
2017-08-28T14:12:08.600Z,19.49
2017-08-28T14:13:18.884Z,19.49
2017-08-28T14:14:29.155Z,19.48
2017-08-28T14:15:39.432Z,19.44
2017-08-28T14:16:49.710Z,19.57
2017-08-28T14:17:59.664Z,19.6
2017-08-28T14:19:09.937Z,19.49
2017-08-28T14:20:20.212Z,19.48
2017-08-28T14:21:30.496Z,19.47
2017-08-28T14:22:40.770Z,19.47
2017-08-28T14:23:51.053Z,19.44
2017-08-28T14:25:01.325Z,19.45
2017-08-28T14:26:11.276Z,19.37
2017-08-28T14:27:21.226Z,19.24
2017-08-28T14:28:31.177Z,19.26
2017-08-28T14:29:41.128Z,19.23
2017-08-28T14:30:51.083Z,19.12
2017-08-28T14:32:01.038Z,19.16
2017-08-28T14:33:11.319Z,19.09
2017-08-28T14:34:21.598Z,19.01
2017-08-28T14:35:31.874Z,18.97
2017-08-28T14:36:41.832Z,18.92
2017-08-28T14:37:51.462Z,18.89
2017-08-28T14:39:01.733Z,18.88
2017-08-28T14:40:12.010Z,18.91
2017-08-28T14:41:22.283Z,18.81
2017-08-28T14:42:32.238Z,18.76
2017-08-28T14:43:42.189Z,18.82
2017-08-28T14:44:51.818Z,18.71
2017-08-28T14:46:02.099Z,18.73
2017-08-28T14:47:11.728Z,18.78
2017-08-28T14:48:22.007Z,18.76
2017-08-28T14:49:32.282Z,18.76
2017-08-28T14:50:42.236Z,18.76
2017-08-28T14:51:52.512Z,18.7
2017-08-28T14:53:02.789Z,18.81
2017-08-28T14:54:12.740Z,18.76
2017-08-28T14:55:23.012Z,18.83
2017-08-28T14:56:33.288Z,18.78
2017-08-28T14:57:43.560Z,18.88
2017-08-28T14:58:53.837Z,18.88
2017-08-28T15:00:03.789Z,18.96
2017-08-28T15:01:14.062Z,18.83
2017-08-28T15:02:23.692Z,18.91
2017-08-28T15:03:33.971Z,18.86
2017-08-28T15:04:43.600Z,18.89
2017-08-28T15:05:53.550Z,18.96